This is the latest recevied weather packets stored in our database for station/object LA1HSA-13. If no packets are shown the sender has not sent any weather packets the latest 10 day(s).
| Time | Temp. | Humidity | Pressure | Rain* | Wind** | Luminosity | Snow |
|---|---|---|---|---|---|---|---|
| 1778019603 | 0.56° C | 63% | 1011.8 hPa | 0 mm | - | - | - |
| 1778019003 | 1.11° C | 60% | 1011.6 hPa | 0 mm | - | - | - |
| 1778018421 | 1.11° C | 57% | 1011.9 hPa | 0 mm | - | - | - |
| 1778017803 | 1.11° C | 59% | 1011.9 hPa | 0 mm | - | - | - |
| 1778017204 | 1.67° C | 56% | 1011.8 hPa | 0 mm | - | - | - |
| 1778016603 | 1.67° C | 55% | 1011.7 hPa | 0 mm | - | - | - |
| 1778016003 | 1.11° C | 57% | 1011.2 hPa | 0 mm | - | - | - |
| 1778015403 | 1.11° C | 58% | 1011.5 hPa | 0 mm | - | - | - |
| 1778014803 | 1.67° C | 56% | 1011.5 hPa | 0 mm | - | - | - |
| 1778014204 | 2.22° C | 54% | 1011.3 hPa | 0 mm | - | - | - |
| 1778013603 | 2.22° C | 52% | 1011.1 hPa | 0 mm | - | - | - |
| 1778013003 | 2.22° C | 54% | 1010.8 hPa | 0 mm | - | - | - |
| 1778012403 | 2.22° C | 55% | 1010.9 hPa | 0 mm | - | - | - |
| 1778011803 | 2.78° C | 52% | 1011 hPa | 0 mm | - | - | - |
| 1778011204 | 3.33° C | 47% | 1010.9 hPa | 0 mm | - | - | - |
| 1778010603 | 3.33° C | 52% | 1010.6 hPa | 0 mm | - | - | - |
| 1778010003 | 3.89° C | 48% | 1010.6 hPa | 0 mm | - | - | - |
| 1778009404 | 4.44° C | 47% | 1010.8 hPa | 0 mm | - | - | - |
| 1778008803 | 5° C | 44% | 1010.7 hPa | 0 mm | - | - | - |
| 1778008204 | 5.56° C | 43% | 1010.4 hPa | 0 mm | - | - | - |
| 1778007603 | 6.67° C | 40% | 1010.3 hPa | 0 mm | - | - | - |
| 1778007003 | 7.78° C | 37% | 1010.3 hPa | 0 mm | - | - | - |
| 1778006403 | 7.78° C | 36% | 1010.4 hPa | 0 mm | - | - | - |
| 1778005803 | 8.33° C | 35% | 1010.2 hPa | 0 mm | - | - | - |
| 1778005203 | 8.33° C | 34% | 1010 hPa | 0 mm | - | - | - |
* Rain latest hour (hover to see other rain measurements)
** Current wind speed in m/s (hover to see current wind gust speed)